Time;durP1;ratioP1;P1;durP2;ratioP2;P2;SDS_P1;SDS_P2;PMS_P1;PMS_P2;Temp;Humidity;BMP_temperature;BMP_pressure;BME280_temperature;BME280_humidity;BME280_pressure;Samples;Min_cycle;Max_cycle;Signal;HPM_P1;HPM_P2
2022/06/04 00:01:12;;;;;;;3.55;2.67;;;;;;;;;;5016529;28;20415;-71
2022/06/04 00:03:38;;;;;;;2.95;2.75;;;;;;;;;;5016567;28;20041;-71
2022/06/04 00:06:04;;;;;;;3.00;2.70;;;;;;;;;;5016705;28;20541;-71
2022/06/04 00:08:30;;;;;;;2.78;2.58;;;;;;;;;;5016360;28;20030;-71
2022/06/04 00:16:26;;;;;;;2.70;2.50;;;;;;;;;;5016298;28;20042;-71
2022/06/04 00:18:52;;;;;;;3.15;2.85;;;;;;;;;;5016206;28;20100;-71
2022/06/04 00:21:17;;;;;;;2.78;2.55;;;;;;;;;;5016112;28;20096;-71
2022/06/04 00:23:43;;;;;;;3.00;2.80;;;;;;;;;;5016159;28;20195;-71
2022/06/04 00:26:10;;;;;;;2.33;2.22;;;;;;;;;;5016261;28;20068;-70
2022/06/04 00:28:36;;;;;;;2.75;2.45;;;;;;;;;;5016016;28;20037;-70
2022/06/04 00:31:01;;;;;;;2.67;2.47;;;;;;;;;;5016020;28;20030;-70
2022/06/04 00:33:27;;;;;;;2.90;2.70;;;;;;;;;;5016407;28;20072;-70
2022/06/04 00:35:55;;;;;;;3.00;2.80;;;;;;;;;;5016276;28;20054;-70
2022/06/04 00:38:23;;;;;;;2.53;2.33;;;;;;;;;;5015825;28;20034;-71
2022/06/04 00:41:15;;;;;;;3.50;2.53;;;;;;;;;;5015803;28;20038;-71
2022/06/04 00:43:56;;;;;;;3.10;2.67;;;;;;;;;;5015779;28;20050;-71
2022/06/04 00:46:39;;;;;;;3.15;2.55;;;;;;;;;;5015645;28;20496;-70
2022/06/04 00:49:05;;;;;;;3.60;2.65;;;;;;;;;;5013564;28;20038;-70
2022/06/04 00:51:31;;;;;;;2.60;2.40;;;;;;;;;;5015964;28;20480;-70
2022/06/04 00:53:56;;;;;;;2.80;2.60;;;;;;;;;;5015844;28;20088;-71
2022/06/04 00:56:40;;;;;;;2.78;2.60;;;;;;;;;;5014979;28;20494;-71
2022/06/04 00:59:15;;;;;;;2.85;2.60;;;;;;;;;;5015671;28;20563;-71
2022/06/04 01:02:00;;;;;;;3.13;2.88;;;;;;;;;;5015591;28;20361;-70
2022/06/04 01:04:47;;;;;;;2.70;2.47;;;;;;;;;;5015295;28;20038;-70
2022/06/04 01:07:31;;;;;;;5.20;2.70;;;;;;;;;;5015289;28;20044;-71
2022/06/04 01:10:08;;;;;;;2.90;2.70;;;;;;;;;;5015707;28;20050;-71
2022/06/04 01:12:36;;;;;;;2.78;2.55;;;;;;;;;;5015460;28;20042;-71
2022/06/04 01:15:32;;;;;;;3.88;3.17;;;;;;;;;;5015179;28;20022;-71
2022/06/04 01:17:57;;;;;;;3.22;2.65;;;;;;;;;;5002610;28;20049;-71
2022/06/04 01:20:53;;;;;;;2.45;2.30;;;;;;;;;;5015309;28;20017;-71
2022/06/04 01:23:31;;;;;;;3.05;2.85;;;;;;;;;;5003010;28;20395;-70
2022/06/04 01:26:06;;;;;;;3.30;3.08;;;;;;;;;;5015191;28;20125;-70
2022/06/04 01:28:36;;;;;;;3.10;2.90;;;;;;;;;;5015206;28;20124;-69
2022/06/04 01:31:05;;;;;;;3.47;2.92;;;;;;;;;;4997762;28;20439;-69
2022/06/04 01:33:46;;;;;;;2.92;2.72;;;;;;;;;;5015324;28;20468;-71
2022/06/04 01:36:12;;;;;;;3.30;3.00;;;;;;;;;;5015243;28;20104;-71
2022/06/04 01:38:42;;;;;;;3.00;2.80;;;;;;;;;;5015225;28;20444;-71
2022/06/04 01:41:07;;;;;;;;;;;;;;;;;;5015161;28;20281;-70
2022/06/04 01:43:41;;;;;;;3.50;3.13;;;;;;;;;;5015270;28;20035;-70
2022/06/04 01:46:09;;;;;;;3.15;2.85;;;;;;;;;;5014664;28;20045;-70
2022/06/04 01:48:38;;;;;;;3.13;2.92;;;;;;;;;;5014382;28;20069;-70
2022/06/04 01:51:04;;;;;;;3.33;3.03;;;;;;;;;;5014733;28;20096;-70
2022/06/04 01:53:32;;;;;;;2.97;2.78;;;;;;;;;;5014542;28;20073;-70
2022/06/04 01:56:00;;;;;;;3.40;3.10;;;;;;;;;;5014595;28;20033;-70
2022/06/04 01:58:30;;;;;;;3.15;2.95;;;;;;;;;;5014452;28;20025;-70
2022/06/04 02:00:58;;;;;;;3.78;2.72;;;;;;;;;;5013402;28;20046;-70
2022/06/04 02:03:30;;;;;;;2.83;2.63;;;;;;;;;;5014367;28;20033;-70
2022/06/04 02:06:15;;;;;;;3.03;2.80;;;;;;;;;;5014184;28;20045;-70
2022/06/04 02:08:47;;;;;;;6.95;2.97;;;;;;;;;;5013796;28;20169;-70
2022/06/04 02:11:14;;;;;;;4.90;2.78;;;;;;;;;;5014255;28;20050;-70
2022/06/04 02:13:41;;;;;;;2.53;2.42;;;;;;;;;;5014985;28;20022;-70
2022/06/04 02:16:39;;;;;;;3.10;2.90;;;;;;;;;;5014262;28;20554;-69
2022/06/04 02:19:04;;;;;;;3.13;2.83;;;;;;;;;;4980975;28;20474;-70
2022/06/04 02:21:30;;;;;;;2.97;2.75;;;;;;;;;;5014607;28;20109;-70
2022/06/04 02:23:56;;;;;;;3.00;2.80;;;;;;;;;;5014078;28;20034;-70
2022/06/04 02:26:23;;;;;;;3.22;2.92;;;;;;;;;;5014675;28;20034;-69
2022/06/04 02:28:49;;;;;;;3.35;3.15;;;;;;;;;;5014091;28;20037;-70
2022/06/04 02:31:20;;;;;;;3.42;3.15;;;;;;;;;;5013897;28;20036;-69
2022/06/04 02:33:49;;;;;;;4.78;3.00;;;;;;;;;;5013958;28;20037;-71
2022/06/04 02:36:21;;;;;;;3.55;2.90;;;;;;;;;;5014198;28;20044;-71
2022/06/04 02:38:50;;;;;;;3.47;3.17;;;;;;;;;;5014535;28;20431;-69
2022/06/04 02:41:18;;;;;;;3.05;2.75;;;;;;;;;;5014530;28;20034;-69
2022/06/04 02:44:03;;;;;;;3.20;2.97;;;;;;;;;;5014008;28;20038;-71
2022/06/04 02:46:32;;;;;;;3.55;3.20;;;;;;;;;;5014018;28;20479;-71
2022/06/04 02:49:06;;;;;;;3.83;3.38;;;;;;;;;;5013966;28;20060;-71
2022/06/04 02:51:36;;;;;;;3.08;2.80;;;;;;;;;;5014005;28;20033;-71
2022/06/04 02:54:08;;;;;;;4.73;3.30;;;;;;;;;;5014542;28;20076;-71
2022/06/04 02:56:34;;;;;;;4.38;3.10;;;;;;;;;;5014089;28;20272;-70
2022/06/04 02:59:03;;;;;;;4.45;3.38;;;;;;;;;;5014228;28;20460;-70
2022/06/04 03:01:29;;;;;;;2.92;2.72;;;;;;;;;;5013975;28;20042;-70
2022/06/04 03:03:55;;;;;;;3.17;2.95;;;;;;;;;;5014297;28;20034;-70
2022/06/04 03:06:22;;;;;;;5.63;3.30;;;;;;;;;;5013782;28;20426;-70
2022/06/04 03:08:48;;;;;;;3.30;3.03;;;;;;;;;;5013830;28;20036;-70
2022/06/04 03:11:13;;;;;;;3.33;3.03;;;;;;;;;;5014096;28;20113;-70
2022/06/04 03:13:38;;;;;;;3.95;3.28;;;;;;;;;;5013546;28;20022;-71
2022/06/04 03:16:04;;;;;;;3.67;3.38;;;;;;;;;;5013597;28;20042;-71
2022/06/04 03:18:31;;;;;;;3.28;3.08;;;;;;;;;;5014870;28;20026;-71
2022/06/04 03:20:56;;;;;;;3.55;3.25;;;;;;;;;;5017927;28;20081;-71
2022/06/04 03:23:21;;;;;;;3.78;3.58;;;;;;;;;;5017752;28;20061;-71
2022/06/04 03:25:47;;;;;;;4.03;3.67;;;;;;;;;;5017703;28;20030;-70
2022/06/04 03:28:12;;;;;;;3.90;3.70;;;;;;;;;;5017183;28;20444;-70
2022/06/04 03:30:39;;;;;;;4.40;3.50;;;;;;;;;;5017490;28;20061;-70
2022/06/04 03:33:04;;;;;;;3.80;3.50;;;;;;;;;;5017564;28;20113;-70
2022/06/04 03:35:30;;;;;;;4.45;3.80;;;;;;;;;;5017564;28;20068;-70
2022/06/04 03:37:55;;;;;;;4.10;3.60;;;;;;;;;;5017497;28;20042;-70
2022/06/04 03:40:21;;;;;;;4.18;3.85;;;;;;;;;;5017480;28;20049;-70
2022/06/04 03:42:46;;;;;;;4.30;3.90;;;;;;;;;;5016925;28;20053;-70
2022/06/04 03:45:12;;;;;;;3.80;3.50;;;;;;;;;;5017457;28;20041;-70
2022/06/04 03:47:38;;;;;;;4.47;3.63;;;;;;;;;;5017179;28;20024;-71
2022/06/04 03:50:15;;;;;;;3.83;3.53;;;;;;;;;;5017175;28;20128;-71
2022/06/04 03:52:40;;;;;;;4.28;3.92;;;;;;;;;;5017201;28;20478;-70
2022/06/04 03:55:07;;;;;;;3.90;3.60;;;;;;;;;;5017199;28;20030;-70
2022/06/04 03:57:48;;;;;;;5.18;4.03;;;;;;;;;;4999434;28;20449;-70
2022/06/04 04:00:16;;;;;;;4.32;3.67;;;;;;;;;;5017153;28;20383;-71
2022/06/04 04:02:48;;;;;;;4.45;4.05;;;;;;;;;;5016863;28;20104;-71
2022/06/04 04:05:14;;;;;;;4.63;3.75;;;;;;;;;;5016401;28;20042;-70
2022/06/04 04:07:40;;;;;;;3.80;3.50;;;;;;;;;;5016611;28;20030;-70
2022/06/04 04:10:06;;;;;;;4.07;3.78;;;;;;;;;;5016798;28;20403;-70
2022/06/04 04:12:32;;;;;;;3.92;3.63;;;;;;;;;;5016656;28;20065;-71
2022/06/04 04:14:57;;;;;;;4.45;4.05;;;;;;;;;;5016674;28;20037;-71
2022/06/04 04:17:23;;;;;;;4.43;4.03;;;;;;;;;;5016554;28;20034;-71
2022/06/04 04:19:48;;;;;;;5.07;3.45;;;;;;;;;;5016740;28;20121;-69
2022/06/04 04:22:14;;;;;;;3.65;3.35;;;;;;;;;;5016085;28;20062;-70
2022/06/04 04:24:39;;;;;;;4.10;3.80;;;;;;;;;;5016333;28;20471;-70
2022/06/04 04:27:05;;;;;;;3.88;3.58;;;;;;;;;;5016262;28;20034;-71
2022/06/04 04:29:30;;;;;;;3.53;3.33;;;;;;;;;;5016441;28;20156;-71
2022/06/04 04:31:55;;;;;;;4.45;4.05;;;;;;;;;;5015971;28;20472;-72
2022/06/04 04:34:21;;;;;;;6.25;4.00;;;;;;;;;;5016267;28;20038;-72
2022/06/04 04:36:46;;;;;;;4.45;4.05;;;;;;;;;;5016261;28;20038;-72
2022/06/04 04:39:12;;;;;;;3.97;3.70;;;;;;;;;;5016369;28;20478;-71
2022/06/04 04:41:37;;;;;;;4.47;3.85;;;;;;;;;;5016220;28;20030;-70
2022/06/04 04:44:03;;;;;;;5.45;3.97;;;;;;;;;;5015898;28;20073;-71
2022/06/04 04:46:28;;;;;;;3.25;3.05;;;;;;;;;;5015942;28;20033;-71
2022/06/04 04:48:54;;;;;;;3.35;3.05;;;;;;;;;;5015984;28;20041;-71
2022/06/04 04:51:21;;;;;;;3.88;3.55;;;;;;;;;;5015173;28;20092;-71
2022/06/04 04:53:47;;;;;;;3.80;3.50;;;;;;;;;;5015339;28;20072;-71
2022/06/04 04:56:16;;;;;;;3.13;2.92;;;;;;;;;;5015266;28;20026;-71
2022/06/04 04:58:42;;;;;;;4.38;3.50;;;;;;;;;;5015304;28;20053;-71
2022/06/04 05:01:14;;;;;;;6.38;3.83;;;;;;;;;;5015698;28;20038;-71
2022/06/04 05:07:15;;;;;;;3.08;2.88;;;;;;;;;;5015364;28;20100;-71
2022/06/04 05:09:41;;;;;;;3.53;3.22;;;;;;;;;;5015153;28;20042;-72
2022/06/04 05:12:08;;;;;;;3.65;3.45;;;;;;;;;;5015107;28;20076;-71
2022/06/04 05:14:35;;;;;;;4.30;3.92;;;;;;;;;;5014417;28;20085;-73
2022/06/04 05:17:00;;;;;;;4.93;4.28;;;;;;;;;;5015066;28;20030;-73
2022/06/04 05:19:26;;;;;;;5.15;4.70;;;;;;;;;;5014859;28;20556;-73
2022/06/04 05:21:52;;;;;;;5.10;4.57;;;;;;;;;;4997404;28;20040;-73
2022/06/04 05:24:17;;;;;;;4.60;4.00;;;;;;;;;;5014804;28;20052;-73
2022/06/04 05:26:43;;;;;;;4.00;3.53;;;;;;;;;;4997271;28;20033;-73
2022/06/04 05:32:43;;;;;;;4.72;4.22;;;;;;;;;;5015190;28;20149;-77
2022/06/04 05:38:43;;;;;;;3.85;3.40;;;;;;;;;;5014927;28;20068;-71
2022/06/04 05:41:10;;;;;;;4.43;4.10;;;;;;;;;;5013845;28;20058;-71
2022/06/04 05:43:36;;;;;;;4.28;3.97;;;;;;;;;;5014483;28;20068;-71
2022/06/04 05:46:09;;;;;;;3.92;3.63;;;;;;;;;;5014054;28;20042;-71
2022/06/04 05:48:44;;;;;;;3.97;3.67;;;;;;;;;;5013874;28;20062;-71
2022/06/04 05:51:11;;;;;;;4.07;3.78;;;;;;;;;;5013981;28;20046;-71
2022/06/04 05:53:37;;;;;;;4.35;3.92;;;;;;;;;;5013653;28;20022;-71
2022/06/04 05:56:09;;;;;;;4.63;4.28;;;;;;;;;;5013182;28;20064;-71
2022/06/04 05:58:34;;;;;;;5.60;5.03;;;;;;;;;;5013746;28;20129;-71
2022/06/04 06:01:01;;;;;;;4.07;3.87;;;;;;;;;;5013426;28;20113;-71
2022/06/04 06:03:26;;;;;;;4.85;4.30;;;;;;;;;;5013979;28;20335;-71
2022/06/04 06:05:51;;;;;;;4.57;4.18;;;;;;;;;;4996461;28;20042;-71
2022/06/04 06:08:17;;;;;;;4.82;4.13;;;;;;;;;;4996685;28;20045;-71
2022/06/04 06:10:43;;;;;;;4.88;4.47;;;;;;;;;;5014242;28;20044;-71
2022/06/04 06:16:45;;;;;;;3.83;3.55;;;;;;;;;;5014456;28;20092;-71
2022/06/04 06:22:45;;;;;;;4.80;4.40;;;;;;;;;;5014383;28;20101;-71
2022/06/04 06:28:45;;;;;;;5.00;4.60;;;;;;;;;;5014315;28;20165;-71
2022/06/04 06:34:46;;;;;;;5.57;5.18;;;;;;;;;;5014223;28;20065;-71
2022/06/04 06:40:47;;;;;;;6.03;5.30;;;;;;;;;;5014159;28;20095;-71
2022/06/04 06:46:48;;;;;;;5.80;5.40;;;;;;;;;;5013800;28;20056;-73
2022/06/04 06:57:17;;;;;;;9.20;7.50;;;;;;;;;;5018138;28;20084;-72
2022/06/04 07:03:18;;;;;;;9.73;6.90;;;;;;;;;;5017960;28;20482;-72
2022/06/04 07:09:22;;;;;;;8.13;7.22;;;;;;;;;;5017848;28;20025;-72
2022/06/04 07:15:23;;;;;;;6.85;5.70;;;;;;;;;;5017762;28;20152;-72
2022/06/04 07:21:23;;;;;;;5.55;5.00;;;;;;;;;;5017649;28;20029;-72
2022/06/04 07:27:23;;;;;;;5.95;5.25;;;;;;;;;;5017229;28;20044;-73
2022/06/04 07:33:26;;;;;;;7.72;6.00;;;;;;;;;;5017152;28;20033;-73
2022/06/04 07:39:26;;;;;;;7.35;6.40;;;;;;;;;;5017296;28;20080;-73
2022/06/04 07:45:27;;;;;;;11.38;6.60;;;;;;;;;;5017112;28;20061;-73
2022/06/04 07:55:50;;;;;;;12.20;8.82;;;;;;;;;;5017008;28;20080;-73
2022/06/04 08:02:04;;;;;;;11.00;8.30;;;;;;;;;;5016849;28;20032;-73
2022/06/04 08:08:05;;;;;;;9.25;7.93;;;;;;;;;;5016754;28;20404;-73
2022/06/04 08:14:08;;;;;;;8.18;7.22;;;;;;;;;;5016647;28;20184;-74
2022/06/04 08:20:09;;;;;;;6.82;6.13;;;;;;;;;;5016536;28;20032;-73
2022/06/04 08:26:09;;;;;;;7.60;6.85;;;;;;;;;;5016266;28;20392;-73
2022/06/04 08:32:09;;;;;;;8.18;6.28;;;;;;;;;;5016049;28;20048;-73
2022/06/04 08:38:09;;;;;;;6.05;5.55;;;;;;;;;;5016190;28;20029;-73
2022/06/04 08:40:46;;;;;;;7.05;6.35;;;;;;;;;;5015708;28;20042;-74
2022/06/04 08:43:24;;;;;;;7.15;6.22;;;;;;;;;;5015505;28;20503;-72
2022/06/04 08:45:50;;;;;;;6.30;5.13;;;;;;;;;;5014817;28;20096;-66
2022/06/04 08:48:20;;;;;;;5.47;4.97;;;;;;;;;;5015400;28;20030;-72
2022/06/04 08:50:47;;;;;;;5.68;5.28;;;;;;;;;;5015233;28;20029;-71
2022/06/04 08:53:19;;;;;;;6.30;5.70;;;;;;;;;;5014880;28;20041;-69
2022/06/04 08:58:50;;;;;;;6.47;5.78;;;;;;;;;;5014648;28;20050;-73
2022/06/04 09:01:25;;;;;;;6.88;5.38;;;;;;;;;;4998168;28;20462;-72
2022/06/04 09:03:55;;;;;;;6.90;5.55;;;;;;;;;;5015284;28;20038;-73
2022/06/04 09:06:53;;;;;;;5.63;5.13;;;;;;;;;;5015014;28;20353;-73
2022/06/04 09:09:22;;;;;;;5.90;5.60;;;;;;;;;;4981941;28;20046;-73
2022/06/04 09:11:50;;;;;;;7.55;5.97;;;;;;;;;;5014828;28;20053;-72
2022/06/04 09:14:20;;;;;;;6.85;6.00;;;;;;;;;;5015528;28;20052;-72
2022/06/04 09:20:29;;;;;;;5.50;5.00;;;;;;;;;;5015211;28;20036;-62
2022/06/04 09:26:33;;;;;;;6.50;5.75;;;;;;;;;;5015162;28;20149;-63
2022/06/04 09:32:44;;;;;;;6.53;5.93;;;;;;;;;;5014940;28;20177;-63
2022/06/04 09:39:26;;;;;;;9.05;8.20;;;;;;;;;;4974015;28;20033;-72
2022/06/04 09:45:27;;;;;;;15.20;11.52;;;;;;;;;;4973886;28;20082;-72
2022/06/04 09:48:19;;;;;;;9.40;7.00;;;;;;;;;;4973547;28;20043;-71
2022/06/04 09:59:28;;;;;;;7.30;6.70;;;;;;;;;;4916238;29;20083;-72
2022/06/04 10:05:30;;;;;;;6.07;5.68;;;;;;;;;;4921201;29;20066;-71
2022/06/04 10:11:29;;;;;;;12.93;10.35;;;;;;;;;;4954276;28;20109;-72
2022/06/04 10:20:39;;;;;;;5.50;4.97;;;;;;;;;;4954069;29;20034;-72
2022/06/04 10:23:06;;;;;;;5.10;4.53;;;;;;;;;;4988365;28;20408;-72
2022/06/04 10:25:41;;;;;;;36.30;17.92;;;;;;;;;;4992875;28;20415;-72
2022/06/04 10:28:19;;;;;;;10.23;7.70;;;;;;;;;;4992533;28;20535;-72
2022/06/04 10:30:48;;;;;;;198.98;155.43;;;;;;;;;;4992458;28;20034;-74
2022/06/04 10:33:18;;;;;;;34.03;28.20;;;;;;;;;;4992986;28;20034;-69
2022/06/04 10:35:50;;;;;;;6.50;6.10;;;;;;;;;;4994283;28;20357;-71
2022/06/04 10:38:19;;;;;;;6.93;6.43;;;;;;;;;;4994111;28;20035;-71
2022/06/04 10:40:58;;;;;;;5.80;5.22;;;;;;;;;;4994535;28;20014;-71
2022/06/04 10:43:33;;;;;;;5.55;5.07;;;;;;;;;;4976893;28;20460;-71
2022/06/04 10:46:17;;;;;;;4.75;4.38;;;;;;;;;;4994269;28;20443;-73
2022/06/04 10:48:55;;;;;;;4.60;3.70;;;;;;;;;;4994030;28;20034;-71
2022/06/04 10:51:26;;;;;;;4.55;3.90;;;;;;;;;;4994287;28;20126;-71
2022/06/04 10:58:13;;;;;;;4.18;3.75;;;;;;;;;;5013985;28;20033;-71
2022/06/04 11:00:38;;;;;;;5.68;5.13;;;;;;;;;;5013719;28;20038;-71
2022/06/04 11:03:16;;;;;;;5.10;4.57;;;;;;;;;;5013280;28;20037;-72
2022/06/04 11:05:47;;;;;;;5.32;4.80;;;;;;;;;;5013521;28;20052;-72
2022/06/04 11:08:18;;;;;;;9.07;8.25;;;;;;;;;;5013760;28;20435;-72
2022/06/04 11:10:52;;;;;;;14.27;12.38;;;;;;;;;;5013761;28;20029;-72
2022/06/04 11:13:17;;;;;;;5.32;4.93;;;;;;;;;;5013650;28;20050;-72
2022/06/04 11:15:47;;;;;;;36.20;29.70;;;;;;;;;;5013728;28;20088;-72
2022/06/04 11:18:15;;;;;;;6.33;5.80;;;;;;;;;;5013710;28;20269;-72
2022/06/04 11:20:50;;;;;;;4.38;4.18;;;;;;;;;;5013164;28;20104;-72
2022/06/04 11:23:31;;;;;;;4.75;4.38;;;;;;;;;;5013374;28;20065;-72
2022/06/04 11:26:00;;;;;;;5.13;4.60;;;;;;;;;;5013024;28;20112;-73
2022/06/04 11:28:27;;;;;;;3.95;3.65;;;;;;;;;;5013918;28;20034;-72
2022/06/04 11:41:56;;;;;;;4.32;3.92;;;;;;;;;;4995151;28;20091;-70
2022/06/04 11:44:24;;;;;;;6.82;6.22;;;;;;;;;;4994375;28;20050;-70
2022/06/04 11:46:50;;;;;;;5.82;5.32;;;;;;;;;;4994750;28;20105;-71
2022/06/04 11:49:16;;;;;;;5.70;5.30;;;;;;;;;;4994537;28;20720;-70
2022/06/04 11:51:53;;;;;;;4.25;4.05;;;;;;;;;;4994815;28;20034;-69
2022/06/04 11:54:35;;;;;;;4.88;4.47;;;;;;;;;;4994337;28;20054;-70
2022/06/04 11:57:10;;;;;;;4.38;4.07;;;;;;;;;;4994693;28;20046;-70
2022/06/04 11:59:36;;;;;;;4.50;4.20;;;;;;;;;;4978234;28;20046;-70
2022/06/04 12:02:13;;;;;;;4.50;4.20;;;;;;;;;;4994389;28;20053;-70
2022/06/04 12:04:43;;;;;;;4.28;3.83;;;;;;;;;;4994730;28;20034;-71
2022/06/04 12:07:12;;;;;;;4.53;3.60;;;;;;;;;;4995964;28;20121;-71
2022/06/04 12:09:40;;;;;;;4.63;4.20;;;;;;;;;;5014219;28;20025;-72
2022/06/04 12:12:11;;;;;;;4.30;4.00;;;;;;;;;;4996459;28;20038;-71
2022/06/04 12:14:46;;;;;;;4.90;4.60;;;;;;;;;;4996406;28;20038;-67
2022/06/04 12:17:14;;;;;;;4.80;4.60;;;;;;;;;;4996396;28;20092;-61
2022/06/04 12:25:34;;;;;;;5.47;4.82;;;;;;;;;;4996017;28;20050;-58
2022/06/04 12:28:01;;;;;;;5.07;4.68;;;;;;;;;;4996254;28;20030;-62
2022/06/04 12:30:40;;;;;;;4.50;4.13;;;;;;;;;;5008347;28;20066;-58
2022/06/04 12:33:24;;;;;;;4.40;4.10;;;;;;;;;;5013077;28;20046;-59
2022/06/04 12:35:57;;;;;;;4.40;4.10;;;;;;;;;;5013187;28;20034;-59
2022/06/04 12:38:25;;;;;;;4.65;4.35;;;;;;;;;;5013914;28;20464;-59
2022/06/04 12:40:51;;;;;;;4.80;4.43;;;;;;;;;;5013749;28;20017;-59
2022/06/04 12:43:30;;;;;;;4.43;4.13;;;;;;;;;;5013941;28;20069;-59
2022/06/04 12:46:05;;;;;;;4.72;4.40;;;;;;;;;;5011326;28;20100;-60
2022/06/04 12:48:36;;;;;;;5.05;4.68;;;;;;;;;;5013672;28;20034;-60
2022/06/04 12:51:04;;;;;;;4.80;4.50;;;;;;;;;;5013761;28;20061;-60
2022/06/04 12:53:31;;;;;;;5.32;4.93;;;;;;;;;;5013477;28;20033;-61
2022/06/04 12:55:59;;;;;;;5.30;4.80;;;;;;;;;;5013831;28;20065;-58
2022/06/04 12:58:31;;;;;;;4.65;4.43;;;;;;;;;;5013221;28;20053;-59
2022/06/04 13:01:01;;;;;;;5.00;4.60;;;;;;;;;;5010220;28;20034;-58
2022/06/04 13:03:29;;;;;;;5.32;5.03;;;;;;;;;;5011503;28;20124;-56
2022/06/04 13:06:19;;;;;;;5.63;5.10;;;;;;;;;;5015083;28;20482;-56
2022/06/04 13:08:53;;;;;;;5.50;5.20;;;;;;;;;;5015341;28;20042;-56
2022/06/04 13:11:25;;;;;;;5.90;5.40;;;;;;;;;;5013596;28;20049;-56
2022/06/04 13:13:50;;;;;;;5.68;5.38;;;;;;;;;;5011125;28;20038;-58
2022/06/04 13:16:17;;;;;;;4.85;4.53;;;;;;;;;;5006776;28;20030;-60
2022/06/04 13:18:43;;;;;;;5.50;5.05;;;;;;;;;;5006378;28;20050;-60
2022/06/04 13:21:14;;;;;;;5.32;4.93;;;;;;;;;;5006601;28;20033;-60
2022/06/04 13:23:41;;;;;;;6.45;4.95;;;;;;;;;;5003850;28;20069;-60
2022/06/04 13:26:25;;;;;;;5.38;4.97;;;;;;;;;;5006252;28;20124;-60
2022/06/04 13:28:51;;;;;;;6.90;5.18;;;;;;;;;;5005826;28;20042;-60
2022/06/04 13:31:16;;;;;;;5.53;5.13;;;;;;;;;;4988571;28;20037;-59
2022/06/04 13:33:42;;;;;;;5.93;5.53;;;;;;;;;;5006459;28;20164;-59
2022/06/04 13:36:07;;;;;;;5.32;4.82;;;;;;;;;;5005770;28;20404;-60
2022/06/04 13:38:38;;;;;;;6.20;5.60;;;;;;;;;;5013411;28;20072;-61
2022/06/04 13:41:03;;;;;;;;;;;;;;;;;;5014643;28;20045;-61
2022/06/04 13:43:30;;;;;;;5.70;5.20;;;;;;;;;;5014209;28;19909;-60
2022/06/04 13:46:06;;;;;;;4.93;4.63;;;;;;;;;;5013479;28;20042;-59
2022/06/04 13:48:53;;;;;;;4.80;4.50;;;;;;;;;;5070096;28;20474;-60
2022/06/04 13:51:20;;;;;;;4.50;4.30;;;;;;;;;;5069421;28;20100;-72
2022/06/04 13:53:47;;;;;;;4.50;4.10;;;;;;;;;;5070264;28;20009;-72
2022/06/04 13:56:12;;;;;;;4.57;4.28;;;;;;;;;;5070292;28;20082;-72
2022/06/04 13:58:41;;;;;;;5.20;4.72;;;;;;;;;;5061956;28;20029;-73
2022/06/04 14:01:09;;;;;;;4.50;4.20;;;;;;;;;;5068745;28;20039;-72
2022/06/04 14:03:36;;;;;;;4.38;4.18;;;;;;;;;;5069852;28;20313;-72
2022/06/04 14:06:02;;;;;;;4.18;3.95;;;;;;;;;;5070104;28;20067;-72
2022/06/04 14:08:30;;;;;;;4.38;4.07;;;;;;;;;;5069695;28;20052;-72
2022/06/04 14:11:03;;;;;;;4.05;3.85;;;;;;;;;;5070319;28;20116;-72
2022/06/04 14:13:47;;;;;;;5.72;5.32;;;;;;;;;;5069748;28;20501;-73
2022/06/04 14:16:24;;;;;;;3.95;3.75;;;;;;;;;;5070040;28;20052;-72
2022/06/04 14:18:54;;;;;;;3.83;3.60;;;;;;;;;;5068787;28;20572;-72
2022/06/04 14:21:19;;;;;;;3.50;3.20;;;;;;;;;;5068574;28;20048;-73
2022/06/04 14:24:20;;;;;;;3.53;3.33;;;;;;;;;;5070377;28;20124;-72
2022/06/04 14:26:51;;;;;;;3.33;3.13;;;;;;;;;;5045751;28;20099;-72
2022/06/04 14:29:19;;;;;;;2.72;2.63;;;;;;;;;;5065133;28;20033;-72
2022/06/04 14:32:03;;;;;;;3.10;2.90;;;;;;;;;;5068667;28;20048;-73
2022/06/04 14:34:36;;;;;;;3.45;3.25;;;;;;;;;;5068868;28;20029;-73
2022/06/04 14:37:01;;;;;;;4.28;3.97;;;;;;;;;;5068597;28;20398;-73
2022/06/04 14:39:29;;;;;;;3.65;3.45;;;;;;;;;;5068813;28;20029;-74
2022/06/04 14:42:00;;;;;;;4.00;3.80;;;;;;;;;;5068503;28;20033;-74
2022/06/04 14:51:51;;;;;;;3.60;3.33;;;;;;;;;;5070040;28;20032;-73
2022/06/04 14:57:53;;;;;;;4.00;3.80;;;;;;;;;;5069954;28;19915;-73
2022/06/04 15:03:56;;;;;;;3.88;3.58;;;;;;;;;;5056391;28;20470;-73
2022/06/04 15:20:36;;;;;;;4.13;3.85;;;;;;;;;;5054256;28;20482;-73
2022/06/04 15:26:38;;;;;;;3.20;3.10;;;;;;;;;;5053973;28;20064;-73
2022/06/04 15:36:33;;;;;;;4.97;4.57;;;;;;;;;;5034214;28;20040;-73
2022/06/04 15:42:42;;;;;;;4.90;4.70;;;;;;;;;;5033930;28;20063;-74
2022/06/04 15:56:30;;;;;;;9.77;8.35;;;;;;;;;;5055645;28;20131;-74
2022/06/04 16:02:31;;;;;;;5.70;5.40;;;;;;;;;;5055527;28;20027;-74
2022/06/04 16:08:36;;;;;;;21.40;13.63;;;;;;;;;;5055096;28;20047;-74
2022/06/04 16:14:55;;;;;;;9.75;8.88;;;;;;;;;;5055049;28;20541;-74
2022/06/04 16:20:55;;;;;;;6.60;6.20;;;;;;;;;;5055172;28;20115;-75
2022/06/04 16:26:58;;;;;;;10.27;9.10;;;;;;;;;;5054964;28;20090;-74
2022/06/04 16:33:10;;;;;;;6.60;6.18;;;;;;;;;;5054950;28;20064;-74
2022/06/04 16:39:12;;;;;;;6.03;5.47;;;;;;;;;;5054816;28;20044;-74
2022/06/04 16:45:30;;;;;;;3.83;3.53;;;;;;;;;;5054721;28;20123;-74
2022/06/04 16:55:59;;;;;;;3.30;3.10;;;;;;;;;;5054577;28;20393;-74
2022/06/04 17:02:19;;;;;;;4.40;4.10;;;;;;;;;;5054409;28;20036;-74
2022/06/04 17:04:49;;;;;;;2.60;2.50;;;;;;;;;;5051380;28;20041;-74
2022/06/04 17:07:23;;;;;;;2.50;2.40;;;;;;;;;;5050870;28;20471;-74
2022/06/04 17:10:20;;;;;;;2.50;2.40;;;;;;;;;;5051530;28;20078;-74
2022/06/04 17:13:12;;;;;;;3.30;2.95;;;;;;;;;;5038520;28;20045;-74
2022/06/04 17:15:56;;;;;;;12.82;8.48;;;;;;;;;;5047435;28;20468;-74
2022/06/04 17:18:22;;;;;;;3.83;3.53;;;;;;;;;;5050756;28;20044;-74
2022/06/04 17:21:04;;;;;;;3.50;3.30;;;;;;;;;;5050546;28;20037;-73
2022/06/04 17:23:39;;;;;;;10.20;7.82;;;;;;;;;;5050796;28;20040;-74
2022/06/04 17:26:31;;;;;;;9.00;6.72;;;;;;;;;;5050715;28;20063;-73
2022/06/04 17:29:00;;;;;;;9.05;5.50;;;;;;;;;;5042082;28;20542;-74
2022/06/04 17:31:28;;;;;;;5.10;4.63;;;;;;;;;;5050827;28;20083;-74
2022/06/04 17:33:56;;;;;;;3.63;3.42;;;;;;;;;;5050946;28;20021;-74
2022/06/04 17:36:37;;;;;;;4.35;3.50;;;;;;;;;;5050751;28;20120;-74
2022/06/04 17:39:24;;;;;;;4.05;3.20;;;;;;;;;;5050911;28;20468;-74
2022/06/04 17:41:51;;;;;;;4.28;3.90;;;;;;;;;;5050878;28;20037;-75
2022/06/04 17:44:16;;;;;;;3.42;3.20;;;;;;;;;;5050778;28;20025;-74
2022/06/04 17:46:42;;;;;;;4.28;2.75;;;;;;;;;;5050504;28;20021;-74
2022/06/04 17:49:08;;;;;;;3.20;2.83;;;;;;;;;;5050532;28;20032;-74
2022/06/04 17:51:34;;;;;;;4.03;3.53;;;;;;;;;;5050270;28;20110;-74
2022/06/04 17:53:59;;;;;;;4.05;3.63;;;;;;;;;;5050819;28;20407;-74
2022/06/04 17:56:25;;;;;;;7.45;6.38;;;;;;;;;;5050542;28;20017;-74
2022/06/04 17:58:51;;;;;;;13.80;11.65;;;;;;;;;;5050737;28;20108;-74
2022/06/04 18:01:16;;;;;;;9.98;8.48;;;;;;;;;;5050910;28;20057;-74
2022/06/04 18:03:41;;;;;;;6.63;5.05;;;;;;;;;;5050907;28;20037;-74
2022/06/04 18:06:10;;;;;;;4.50;4.10;;;;;;;;;;5050803;28;20029;-73
2022/06/04 18:08:36;;;;;;;4.72;4.32;;;;;;;;;;5050407;28;20108;-74
2022/06/04 18:11:01;;;;;;;8.52;7.72;;;;;;;;;;5050680;28;20120;-74
2022/06/04 18:13:27;;;;;;;7.82;7.03;;;;;;;;;;5051052;28;20078;-72
2022/06/04 18:15:52;;;;;;;6.95;6.35;;;;;;;;;;5050137;28;20425;-74
2022/06/04 18:18:19;;;;;;;3.70;3.05;;;;;;;;;;5050798;28;20029;-73
2022/06/04 18:20:46;;;;;;;3.58;3.38;;;;;;;;;;5051035;28;20025;-68
2022/06/04 18:23:12;;;;;;;3.17;2.97;;;;;;;;;;5050622;28;20497;-64
2022/06/04 18:25:39;;;;;;;3.17;2.95;;;;;;;;;;5049480;28;20295;-71
2022/06/04 18:28:05;;;;;;;4.30;3.92;;;;;;;;;;5050641;28;20044;-72
2022/06/04 18:30:31;;;;;;;4.80;4.43;;;;;;;;;;5050688;28;20069;-72
2022/06/04 18:32:56;;;;;;;4.82;4.13;;;;;;;;;;5050607;28;20021;-72
2022/06/04 18:35:22;;;;;;;4.68;4.28;;;;;;;;;;5053916;28;20021;-72
2022/06/04 18:37:48;;;;;;;10.60;9.68;;;;;;;;;;5054160;28;20040;-72
2022/06/04 18:40:14;;;;;;;8.75;8.15;;;;;;;;;;5054052;28;20040;-72
2022/06/04 18:59:13;;;;;;;17.08;11.27;;;;;;;;;;5056746;28;20123;-72
2022/06/04 19:05:13;;;;;;;18.73;15.00;;;;;;;;;;5056350;28;20383;-72
2022/06/04 19:18:05;;;;;;;12.43;9.73;;;;;;;;;;5056388;28;20391;-72
2022/06/04 19:30:56;;;;;;;22.60;18.25;;;;;;;;;;5056134;28;20067;-72
2022/06/04 19:36:59;;;;;;;10.63;8.65;;;;;;;;;;5056023;28;20524;-72
2022/06/04 19:42:59;;;;;;;20.85;12.45;;;;;;;;;;5055662;28;20035;-71
2022/06/04 19:49:00;;;;;;;11.25;10.05;;;;;;;;;;5055803;28;20143;-71
2022/06/04 19:58:50;;;;;;;5.72;5.30;;;;;;;;;;5055373;28;20027;-71
2022/06/04 20:04:50;;;;;;;34.47;24.35;;;;;;;;;;5055528;28;20479;-71
2022/06/04 20:10:52;;;;;;;12.65;10.80;;;;;;;;;;5055387;28;20090;-71
2022/06/04 20:16:53;;;;;;;6.50;5.90;;;;;;;;;;5055036;28;20571;-70
2022/06/04 20:22:53;;;;;;;9.43;7.55;;;;;;;;;;5055159;28;20048;-70
2022/06/04 20:28:54;;;;;;;8.13;6.70;;;;;;;;;;5054745;28;20047;-70
2022/06/04 20:34:55;;;;;;;19.75;12.35;;;;;;;;;;5054947;28;20019;-70
2022/06/04 20:41:00;;;;;;;24.35;16.42;;;;;;;;;;5054848;28;20450;-69
2022/06/04 20:47:03;;;;;;;16.27;13.07;;;;;;;;;;5054613;28;20044;-71
2022/06/04 20:53:04;;;;;;;16.10;12.00;;;;;;;;;;5054594;28;20050;-70
2022/06/04 20:59:33;;;;;;;17.58;12.38;;;;;;;;;;5047064;28;20043;-73